sensor_id;sensor_type;location;lat;lon;timestamp;temperature;humidity
26703;DHT22;14316;51.074;3.704;2022-11-15T00:00:07;10.90;99.90
26703;DHT22;14316;51.074;3.704;2022-11-15T00:02:32;11.00;99.90
26703;DHT22;14316;51.074;3.704;2022-11-15T00:04:58;11.00;99.90
26703;DHT22;14316;51.074;3.704;2022-11-15T00:07:24;11.00;99.90
26703;DHT22;14316;51.074;3.704;2022-11-15T00:09:49;11.10;99.90
26703;DHT22;14316;51.074;3.704;2022-11-15T00:12:15;11.10;99.90
26703;DHT22;14316;51.074;3.704;2022-11-15T00:14:40;11.20;99.90
26703;DHT22;14316;51.074;3.704;2022-11-15T00:17:08;11.10;99.90
26703;DHT22;14316;51.074;3.704;2022-11-15T00:19:34;11.20;99.90
26703;DHT22;14316;51.074;3.704;2022-11-15T00:22:00;11.20;99.90
26703;DHT22;14316;51.074;3.704;2022-11-15T00:24:26;11.20;99.90
26703;DHT22;14316;51.074;3.704;2022-11-15T00:26:51;11.20;99.90
26703;DHT22;14316;51.074;3.704;2022-11-15T00:29:17;11.20;99.90
26703;DHT22;14316;51.074;3.704;2022-11-15T00:31:42;11.30;99.90
26703;DHT22;14316;51.074;3.704;2022-11-15T00:34:09;11.20;99.90
26703;DHT22;14316;51.074;3.704;2022-11-15T00:36:35;11.30;99.90
26703;DHT22;14316;51.074;3.704;2022-11-15T00:39:04;11.30;99.90
26703;DHT22;14316;51.074;3.704;2022-11-15T00:41:30;11.30;99.90
26703;DHT22;14316;51.074;3.704;2022-11-15T00:43:56;11.50;99.90
26703;DHT22;14316;51.074;3.704;2022-11-15T00:46:22;11.30;99.90
26703;DHT22;14316;51.074;3.704;2022-11-15T00:48:48;11.30;99.90
26703;DHT22;14316;51.074;3.704;2022-11-15T00:51:13;11.30;99.90
26703;DHT22;14316;51.074;3.704;2022-11-15T00:53:39;11.30;99.90
26703;DHT22;14316;51.074;3.704;2022-11-15T00:56:05;11.20;99.90
26703;DHT22;14316;51.074;3.704;2022-11-15T00:58:31;11.60;99.90
26703;DHT22;14316;51.074;3.704;2022-11-15T01:01:08;11.30;99.90
26703;DHT22;14316;51.074;3.704;2022-11-15T01:03:34;11.30;99.90
26703;DHT22;14316;51.074;3.704;2022-11-15T01:06:00;11.30;99.90
26703;DHT22;14316;51.074;3.704;2022-11-15T01:08:26;11.30;99.90
26703;DHT22;14316;51.074;3.704;2022-11-15T01:10:52;11.30;99.90
26703;DHT22;14316;51.074;3.704;2022-11-15T01:13:18;11.30;99.90
26703;DHT22;14316;51.074;3.704;2022-11-15T01:15:43;11.30;99.90
26703;DHT22;14316;51.074;3.704;2022-11-15T01:18:09;11.30;99.90
26703;DHT22;14316;51.074;3.704;2022-11-15T01:20:40;11.20;99.90
26703;DHT22;14316;51.074;3.704;2022-11-15T01:23:06;11.20;99.90
26703;DHT22;14316;51.074;3.704;2022-11-15T01:25:31;11.20;99.90
26703;DHT22;14316;51.074;3.704;2022-11-15T01:27:57;11.30;99.90
26703;DHT22;14316;51.074;3.704;2022-11-15T01:30:23;11.20;99.90
26703;DHT22;14316;51.074;3.704;2022-11-15T01:32:49;11.30;99.90
26703;DHT22;14316;51.074;3.704;2022-11-15T01:35:14;11.20;99.90
26703;DHT22;14316;51.074;3.704;2022-11-15T01:37:40;11.30;99.90
26703;DHT22;14316;51.074;3.704;2022-11-15T01:40:06;11.30;99.90
26703;DHT22;14316;51.074;3.704;2022-11-15T01:42:32;11.30;99.90
26703;DHT22;14316;51.074;3.704;2022-11-15T01:44:57;11.30;99.90
26703;DHT22;14316;51.074;3.704;2022-11-15T01:47:28;11.90;99.90
26703;DHT22;14316;51.074;3.704;2022-11-15T01:49:58;11.30;99.90
26703;DHT22;14316;51.074;3.704;2022-11-15T01:52:26;11.20;99.90
26703;DHT22;14316;51.074;3.704;2022-11-15T01:55:03;11.30;99.90
26703;DHT22;14316;51.074;3.704;2022-11-15T01:57:30;11.20;99.90
26703;DHT22;14316;51.074;3.704;2022-11-15T01:59:57;11.20;99.90
26703;DHT22;14316;51.074;3.704;2022-11-15T02:02:25;11.20;99.90
26703;DHT22;14316;51.074;3.704;2022-11-15T02:04:51;11.20;99.90
26703;DHT22;14316;51.074;3.704;2022-11-15T02:07:18;11.20;99.90
26703;DHT22;14316;51.074;3.704;2022-11-15T02:09:46;11.20;99.90
26703;DHT22;14316;51.074;3.704;2022-11-15T02:12:14;11.10;99.90
26703;DHT22;14316;51.074;3.704;2022-11-15T02:14:43;11.20;99.90
26703;DHT22;14316;51.074;3.704;2022-11-15T02:34:08;11.20;99.90
26703;DHT22;14316;51.074;3.704;2022-11-15T02:37:18;11.20;99.90
26703;DHT22;14316;51.074;3.704;2022-11-15T02:39:42;11.20;99.90
26703;DHT22;14316;51.074;3.704;2022-11-15T02:42:17;11.20;99.90
26703;DHT22;14316;51.074;3.704;2022-11-15T02:45:06;11.20;99.90
26703;DHT22;14316;51.074;3.704;2022-11-15T02:47:38;11.20;99.90
26703;DHT22;14316;51.074;3.704;2022-11-15T02:50:17;11.20;99.90
26703;DHT22;14316;51.074;3.704;2022-11-15T02:52:48;11.20;99.90
26703;DHT22;14316;51.074;3.704;2022-11-15T02:55:28;11.20;99.90
26703;DHT22;14316;51.074;3.704;2022-11-15T03:00:56;11.20;99.90
26703;DHT22;14316;51.074;3.704;2022-11-15T03:04:16;11.10;99.90
26703;DHT22;14316;51.074;3.704;2022-11-15T03:06:29;11.00;99.90
26703;DHT22;14316;51.074;3.704;2022-11-15T03:09:04;11.00;99.90
26703;DHT22;14316;51.074;3.704;2022-11-15T03:11:34;11.00;99.90
26703;DHT22;14316;51.074;3.704;2022-11-15T03:14:25;11.00;99.90
26703;DHT22;14316;51.074;3.704;2022-11-15T03:19:34;11.80;99.90
26703;DHT22;14316;51.074;3.704;2022-11-15T03:22:04;10.90;99.90
26703;DHT22;14316;51.074;3.704;2022-11-15T03:24:31;10.90;99.90
26703;DHT22;14316;51.074;3.704;2022-11-15T03:27:01;10.90;99.90
26703;DHT22;14316;51.074;3.704;2022-11-15T03:29:32;10.90;99.90
26703;DHT22;14316;51.074;3.704;2022-11-15T03:32:03;10.90;99.90
26703;DHT22;14316;51.074;3.704;2022-11-15T03:34:53;10.80;99.90
26703;DHT22;14316;51.074;3.704;2022-11-15T03:37:25;10.80;99.90
26703;DHT22;14316;51.074;3.704;2022-11-15T03:39:51;10.80;99.90
26703;DHT22;14316;51.074;3.704;2022-11-15T03:42:30;10.80;99.90
26703;DHT22;14316;51.074;3.704;2022-11-15T03:45:08;10.70;99.90
26703;DHT22;14316;51.074;3.704;2022-11-15T03:47:45;10.60;99.90
26703;DHT22;14316;51.074;3.704;2022-11-15T03:50:20;10.70;99.90
26703;DHT22;14316;51.074;3.704;2022-11-15T03:52:47;10.70;99.90
26703;DHT22;14316;51.074;3.704;2022-11-15T03:55:17;10.70;99.90
26703;DHT22;14316;51.074;3.704;2022-11-15T03:57:43;10.80;99.90
26703;DHT22;14316;51.074;3.704;2022-11-15T04:00:10;10.80;99.90
26703;DHT22;14316;51.074;3.704;2022-11-15T04:02:36;10.70;99.90
26703;DHT22;14316;51.074;3.704;2022-11-15T04:05:02;10.80;99.90
26703;DHT22;14316;51.074;3.704;2022-11-15T04:07:28;10.60;99.90
26703;DHT22;14316;51.074;3.704;2022-11-15T04:09:53;10.60;99.90
26703;DHT22;14316;51.074;3.704;2022-11-15T04:12:33;10.60;99.90
26703;DHT22;14316;51.074;3.704;2022-11-15T04:15:25;10.50;99.90
26703;DHT22;14316;51.074;3.704;2022-11-15T04:17:56;10.40;99.90
26703;DHT22;14316;51.074;3.704;2022-11-15T04:20:27;10.30;99.90
26703;DHT22;14316;51.074;3.704;2022-11-15T04:23:20;10.30;99.90
26703;DHT22;14316;51.074;3.704;2022-11-15T04:26:11;10.20;99.90
26703;DHT22;14316;51.074;3.704;2022-11-15T04:28:37;10.10;99.90
26703;DHT22;14316;51.074;3.704;2022-11-15T04:31:26;10.10;99.90
26703;DHT22;14316;51.074;3.704;2022-11-15T04:33:52;10.10;99.90
26703;DHT22;14316;51.074;3.704;2022-11-15T04:36:19;10.10;99.90
26703;DHT22;14316;51.074;3.704;2022-11-15T04:39:04;10.10;99.90
26703;DHT22;14316;51.074;3.704;2022-11-15T04:41:29;10.10;99.90
26703;DHT22;14316;51.074;3.704;2022-11-15T04:43:55;10.10;99.90
26703;DHT22;14316;51.074;3.704;2022-11-15T04:46:22;10.20;99.90
26703;DHT22;14316;51.074;3.704;2022-11-15T04:48:48;10.30;99.90
26703;DHT22;14316;51.074;3.704;2022-11-15T04:51:13;10.20;99.90
26703;DHT22;14316;51.074;3.704;2022-11-15T04:53:39;10.20;99.90
26703;DHT22;14316;51.074;3.704;2022-11-15T04:56:05;10.10;99.90
26703;DHT22;14316;51.074;3.704;2022-11-15T04:58:31;9.90;99.90
26703;DHT22;14316;51.074;3.704;2022-11-15T05:00:56;9.80;99.90
26703;DHT22;14316;51.074;3.704;2022-11-15T05:03:22;9.80;99.90
26703;DHT22;14316;51.074;3.704;2022-11-15T05:06:06;9.70;99.90
26703;DHT22;14316;51.074;3.704;2022-11-15T05:08:32;9.70;99.90
26703;DHT22;14316;51.074;3.704;2022-11-15T05:10:58;9.60;99.90
26703;DHT22;14316;51.074;3.704;2022-11-15T05:13:23;9.60;99.90
26703;DHT22;14316;51.074;3.704;2022-11-15T05:15:49;9.60;99.90
26703;DHT22;14316;51.074;3.704;2022-11-15T05:18:15;9.60;99.90
26703;DHT22;14316;51.074;3.704;2022-11-15T05:20:41;9.90;99.90
26703;DHT22;14316;51.074;3.704;2022-11-15T05:23:07;9.60;99.90
26703;DHT22;14316;51.074;3.704;2022-11-15T05:25:32;9.60;99.90
26703;DHT22;14316;51.074;3.704;2022-11-15T05:27:58;9.60;99.90
26703;DHT22;14316;51.074;3.704;2022-11-15T05:30:24;9.60;99.90
26703;DHT22;14316;51.074;3.704;2022-11-15T05:32:50;9.60;99.90
26703;DHT22;14316;51.074;3.704;2022-11-15T05:35:25;9.60;99.90
26703;DHT22;14316;51.074;3.704;2022-11-15T05:37:55;9.60;99.90
26703;DHT22;14316;51.074;3.704;2022-11-15T05:40:20;9.60;99.90
26703;DHT22;14316;51.074;3.704;2022-11-15T05:42:47;9.50;99.90
26703;DHT22;14316;51.074;3.704;2022-11-15T05:45:13;9.50;99.90
26703;DHT22;14316;51.074;3.704;2022-11-15T05:47:40;9.40;99.90
26703;DHT22;14316;51.074;3.704;2022-11-15T05:50:06;9.50;99.90
26703;DHT22;14316;51.074;3.704;2022-11-15T05:52:35;9.40;99.90
26703;DHT22;14316;51.074;3.704;2022-11-15T05:55:03;9.30;99.90
26703;DHT22;14316;51.074;3.704;2022-11-15T05:57:30;9.30;99.90
26703;DHT22;14316;51.074;3.704;2022-11-15T05:59:56;9.40;99.90
26703;DHT22;14316;51.074;3.704;2022-11-15T06:02:22;9.30;99.90
26703;DHT22;14316;51.074;3.704;2022-11-15T06:04:47;9.30;99.90
26703;DHT22;14316;51.074;3.704;2022-11-15T06:07:13;9.30;99.90
26703;DHT22;14316;51.074;3.704;2022-11-15T06:09:38;9.30;99.90
26703;DHT22;14316;51.074;3.704;2022-11-15T06:12:05;9.40;99.90
26703;DHT22;14316;51.074;3.704;2022-11-15T06:14:30;9.40;99.90
26703;DHT22;14316;51.074;3.704;2022-11-15T06:16:56;9.40;99.90
26703;DHT22;14316;51.074;3.704;2022-11-15T06:19:21;9.30;99.90
26703;DHT22;14316;51.074;3.704;2022-11-15T06:21:48;9.40;99.90
26703;DHT22;14316;51.074;3.704;2022-11-15T06:24:13;9.40;99.90
26703;DHT22;14316;51.074;3.704;2022-11-15T06:26:39;9.30;99.90
26703;DHT22;14316;51.074;3.704;2022-11-15T06:29:05;9.20;99.90
26703;DHT22;14316;51.074;3.704;2022-11-15T06:31:31;9.80;99.90
26703;DHT22;14316;51.074;3.704;2022-11-15T06:33:56;9.20;99.90
26703;DHT22;14316;51.074;3.704;2022-11-15T06:36:23;9.20;99.90
26703;DHT22;14316;51.074;3.704;2022-11-15T06:38:48;9.20;99.90
26703;DHT22;14316;51.074;3.704;2022-11-15T06:41:14;9.80;99.90
26703;DHT22;14316;51.074;3.704;2022-11-15T06:43:42;9.30;99.90
26703;DHT22;14316;51.074;3.704;2022-11-15T06:46:08;9.50;99.90
26703;DHT22;14316;51.074;3.704;2022-11-15T06:48:35;9.50;99.90
26703;DHT22;14316;51.074;3.704;2022-11-15T06:51:02;9.40;99.90
26703;DHT22;14316;51.074;3.704;2022-11-15T06:53:29;9.50;99.90
26703;DHT22;14316;51.074;3.704;2022-11-15T06:55:59;9.60;99.90
26703;DHT22;14316;51.074;3.704;2022-11-15T06:58:26;9.50;99.90
26703;DHT22;14316;51.074;3.704;2022-11-15T07:00:52;9.40;99.90
26703;DHT22;14316;51.074;3.704;2022-11-15T07:03:18;9.50;99.90
26703;DHT22;14316;51.074;3.704;2022-11-15T07:05:53;9.40;99.90
26703;DHT22;14316;51.074;3.704;2022-11-15T07:08:21;9.50;99.90
26703;DHT22;14316;51.074;3.704;2022-11-15T07:10:47;9.60;99.90
26703;DHT22;14316;51.074;3.704;2022-11-15T07:13:12;9.60;99.90
26703;DHT22;14316;51.074;3.704;2022-11-15T07:15:38;9.90;99.90
26703;DHT22;14316;51.074;3.704;2022-11-15T07:18:04;9.80;99.90
26703;DHT22;14316;51.074;3.704;2022-11-15T07:20:29;9.80;99.90
26703;DHT22;14316;51.074;3.704;2022-11-15T07:23:03;9.90;99.90
26703;DHT22;14316;51.074;3.704;2022-11-15T07:25:30;9.90;99.90
26703;DHT22;14316;51.074;3.704;2022-11-15T07:28:00;10.00;99.90
26703;DHT22;14316;51.074;3.704;2022-11-15T07:30:26;9.90;99.90
26703;DHT22;14316;51.074;3.704;2022-11-15T07:32:54;9.90;99.90
26703;DHT22;14316;51.074;3.704;2022-11-15T07:35:20;10.00;99.90
26703;DHT22;14316;51.074;3.704;2022-11-15T07:37:53;10.00;99.90
26703;DHT22;14316;51.074;3.704;2022-11-15T07:40:20;9.90;99.90
26703;DHT22;14316;51.074;3.704;2022-11-15T07:42:46;9.90;99.90
26703;DHT22;14316;51.074;3.704;2022-11-15T07:45:22;10.70;99.90
26703;DHT22;14316;51.074;3.704;2022-11-15T07:47:49;10.00;99.90
26703;DHT22;14316;51.074;3.704;2022-11-15T07:50:16;10.10;99.90
26703;DHT22;14316;51.074;3.704;2022-11-15T07:52:42;10.20;99.90
26703;DHT22;14316;51.074;3.704;2022-11-15T07:55:08;10.30;99.90
26703;DHT22;14316;51.074;3.704;2022-11-15T07:57:35;10.40;99.90
26703;DHT22;14316;51.074;3.704;2022-11-15T08:00:01;10.50;99.90
26703;DHT22;14316;51.074;3.704;2022-11-15T08:02:27;10.50;99.90
26703;DHT22;14316;51.074;3.704;2022-11-15T08:04:52;10.40;99.90
26703;DHT22;14316;51.074;3.704;2022-11-15T08:07:18;10.30;99.90
26703;DHT22;14316;51.074;3.704;2022-11-15T08:09:44;10.30;99.90
26703;DHT22;14316;51.074;3.704;2022-11-15T08:12:10;10.40;99.90
26703;DHT22;14316;51.074;3.704;2022-11-15T08:14:36;10.40;99.90
26703;DHT22;14316;51.074;3.704;2022-11-15T08:17:01;10.70;99.90
26703;DHT22;14316;51.074;3.704;2022-11-15T08:19:27;10.70;99.90
26703;DHT22;14316;51.074;3.704;2022-11-15T08:21:53;10.80;99.90
26703;DHT22;14316;51.074;3.704;2022-11-15T08:24:19;10.90;99.90
26703;DHT22;14316;51.074;3.704;2022-11-15T08:26:46;11.00;99.90
26703;DHT22;14316;51.074;3.704;2022-11-15T08:29:12;11.20;99.90
26703;DHT22;14316;51.074;3.704;2022-11-15T08:31:38;11.40;99.90
26703;DHT22;14316;51.074;3.704;2022-11-15T08:34:04;11.40;99.90
26703;DHT22;14316;51.074;3.704;2022-11-15T08:36:30;11.90;99.90
26703;DHT22;14316;51.074;3.704;2022-11-15T08:38:56;11.90;99.90
26703;DHT22;14316;51.074;3.704;2022-11-15T08:41:34;11.90;99.90
26703;DHT22;14316;51.074;3.704;2022-11-15T08:44:01;11.90;99.90
26703;DHT22;14316;51.074;3.704;2022-11-15T08:46:27;11.90;99.90
26703;DHT22;14316;51.074;3.704;2022-11-15T08:48:53;11.70;99.90
26703;DHT22;14316;51.074;3.704;2022-11-15T08:51:19;11.70;99.90
26703;DHT22;14316;51.074;3.704;2022-11-15T08:53:45;11.90;99.90
26703;DHT22;14316;51.074;3.704;2022-11-15T08:56:13;12.10;99.90
26703;DHT22;14316;51.074;3.704;2022-11-15T08:58:39;12.30;99.90
26703;DHT22;14316;51.074;3.704;2022-11-15T09:01:06;12.60;99.90
26703;DHT22;14316;51.074;3.704;2022-11-15T09:03:32;12.80;99.90
26703;DHT22;14316;51.074;3.704;2022-11-15T09:05:59;12.80;99.90
26703;DHT22;14316;51.074;3.704;2022-11-15T09:08:28;13.10;99.90
26703;DHT22;14316;51.074;3.704;2022-11-15T09:10:54;13.20;99.90
26703;DHT22;14316;51.074;3.704;2022-11-15T09:13:21;12.90;99.90
26703;DHT22;14316;51.074;3.704;2022-11-15T09:15:47;12.90;99.90
26703;DHT22;14316;51.074;3.704;2022-11-15T09:18:13;13.30;99.90
26703;DHT22;14316;51.074;3.704;2022-11-15T09:20:38;13.60;99.90
26703;DHT22;14316;51.074;3.704;2022-11-15T09:23:05;13.90;99.90
26703;DHT22;14316;51.074;3.704;2022-11-15T09:25:32;14.20;99.90
26703;DHT22;14316;51.074;3.704;2022-11-15T09:27:58;14.20;99.90
26703;DHT22;14316;51.074;3.704;2022-11-15T09:30:24;14.20;99.90
26703;DHT22;14316;51.074;3.704;2022-11-15T09:32:50;14.50;99.90
26703;DHT22;14316;51.074;3.704;2022-11-15T09:35:16;14.70;99.90
26703;DHT22;14316;51.074;3.704;2022-11-15T09:37:43;14.80;99.90
26703;DHT22;14316;51.074;3.704;2022-11-15T09:40:11;15.10;99.90
26703;DHT22;14316;51.074;3.704;2022-11-15T09:43:02;15.30;99.90
26703;DHT22;14316;51.074;3.704;2022-11-15T09:48:55;15.50;99.90
26703;DHT22;14316;51.074;3.704;2022-11-15T09:51:21;15.10;99.90
26703;DHT22;14316;51.074;3.704;2022-11-15T09:56:27;15.50;99.90
26703;DHT22;14316;51.074;3.704;2022-11-15T10:04:22;15.90;99.90
26703;DHT22;14316;51.074;3.704;2022-11-15T10:07:02;15.70;99.90
26703;DHT22;14316;51.074;3.704;2022-11-15T10:12:19;14.70;99.90
26703;DHT22;14316;51.074;3.704;2022-11-15T10:14:46;14.70;99.90
26703;DHT22;14316;51.074;3.704;2022-11-15T10:20:40;14.20;99.90
26703;DHT22;14316;51.074;3.704;2022-11-15T10:23:11;14.20;99.90
26703;DHT22;14316;51.074;3.704;2022-11-15T10:25:39;14.30;99.90
26703;DHT22;14316;51.074;3.704;2022-11-15T10:28:29;14.40;99.90
26703;DHT22;14316;51.074;3.704;2022-11-15T10:30:57;14.60;99.90
26703;DHT22;14316;51.074;3.704;2022-11-15T10:33:30;14.50;99.90
26703;DHT22;14316;51.074;3.704;2022-11-15T10:36:21;14.40;99.90
26703;DHT22;14316;51.074;3.704;2022-11-15T10:43:45;14.20;99.90
26703;DHT22;14316;51.074;3.704;2022-11-15T10:46:25;14.60;99.90
26703;DHT22;14316;51.074;3.704;2022-11-15T10:48:51;14.50;99.90
26703;DHT22;14316;51.074;3.704;2022-11-15T10:51:24;14.40;99.90
26703;DHT22;14316;51.074;3.704;2022-11-15T10:53:55;14.10;99.90
26703;DHT22;14316;51.074;3.704;2022-11-15T10:56:22;13.90;99.90
26703;DHT22;14316;51.074;3.704;2022-11-15T10:58:56;13.90;99.90
26703;DHT22;14316;51.074;3.704;2022-11-15T11:01:24;13.90;99.90
26703;DHT22;14316;51.074;3.704;2022-11-15T11:04:09;14.00;99.90
26703;DHT22;14316;51.074;3.704;2022-11-15T11:09:36;14.20;99.90
26703;DHT22;14316;51.074;3.704;2022-11-15T11:12:03;14.40;99.90
26703;DHT22;14316;51.074;3.704;2022-11-15T11:14:32;14.60;99.90
26703;DHT22;14316;51.074;3.704;2022-11-15T11:17:26;14.80;99.90
26703;DHT22;14316;51.074;3.704;2022-11-15T11:20:24;15.10;99.90
26703;DHT22;14316;51.074;3.704;2022-11-15T11:31:47;15.10;99.90
26703;DHT22;14316;51.074;3.704;2022-11-15T11:34:44;15.10;99.90
26703;DHT22;14316;51.074;3.704;2022-11-15T11:42:52;14.80;99.90
26703;DHT22;14316;51.074;3.704;2022-11-15T11:51:23;14.60;99.90
26703;DHT22;14316;51.074;3.704;2022-11-15T11:54:32;14.70;99.90
26703;DHT22;14316;51.074;3.704;2022-11-15T11:57:05;14.70;99.90
26703;DHT22;14316;51.074;3.704;2022-11-15T11:59:52;14.40;99.90
26703;DHT22;14316;51.074;3.704;2022-11-15T12:02:29;14.40;99.90
26703;DHT22;14316;51.074;3.704;2022-11-15T12:05:22;14.40;99.90
26703;DHT22;14316;51.074;3.704;2022-11-15T12:07:50;14.60;99.90
26703;DHT22;14316;51.074;3.704;2022-11-15T12:10:24;14.70;99.90
26703;DHT22;14316;51.074;3.704;2022-11-15T12:13:11;14.50;99.90
26703;DHT22;14316;51.074;3.704;2022-11-15T12:15:43;14.50;99.90
26703;DHT22;14316;51.074;3.704;2022-11-15T12:18:12;14.30;99.90
26703;DHT22;14316;51.074;3.704;2022-11-15T12:20:42;14.40;99.90
26703;DHT22;14316;51.074;3.704;2022-11-15T12:23:23;14.50;99.90
26703;DHT22;14316;51.074;3.704;2022-11-15T12:25:55;14.40;99.90
26703;DHT22;14316;51.074;3.704;2022-11-15T12:28:35;14.60;99.90
26703;DHT22;14316;51.074;3.704;2022-11-15T12:31:05;14.30;99.90
26703;DHT22;14316;51.074;3.704;2022-11-15T12:33:41;14.20;99.90
26703;DHT22;14316;51.074;3.704;2022-11-15T12:39:01;14.10;99.90
26703;DHT22;14316;51.074;3.704;2022-11-15T12:41:28;14.30;99.90
26703;DHT22;14316;51.074;3.704;2022-11-15T12:43:55;14.30;99.90
26703;DHT22;14316;51.074;3.704;2022-11-15T12:49:01;14.40;99.90
26703;DHT22;14316;51.074;3.704;2022-11-15T13:00:01;14.20;99.90
26703;DHT22;14316;51.074;3.704;2022-11-15T13:02:35;14.20;99.90
26703;DHT22;14316;51.074;3.704;2022-11-15T13:12:57;14.10;99.90
26703;DHT22;14316;51.074;3.704;2022-11-15T13:15:51;14.10;99.90
26703;DHT22;14316;51.074;3.704;2022-11-15T13:18:31;14.10;99.90
26703;DHT22;14316;51.074;3.704;2022-11-15T13:20:58;14.10;99.90
26703;DHT22;14316;51.074;3.704;2022-11-15T13:23:24;14.20;99.90
26703;DHT22;14316;51.074;3.704;2022-11-15T13:26:13;14.20;99.90
26703;DHT22;14316;51.074;3.704;2022-11-15T13:28:46;14.20;99.90
26703;DHT22;14316;51.074;3.704;2022-11-15T13:31:18;14.00;99.90
26703;DHT22;14316;51.074;3.704;2022-11-15T13:33:44;13.90;99.90
26703;DHT22;14316;51.074;3.704;2022-11-15T13:36:25;14.10;99.90
26703;DHT22;14316;51.074;3.704;2022-11-15T13:38:56;13.80;99.90
26703;DHT22;14316;51.074;3.704;2022-11-15T13:41:31;13.90;99.90
26703;DHT22;14316;51.074;3.704;2022-11-15T13:43:58;13.90;99.90
26703;DHT22;14316;51.074;3.704;2022-11-15T13:46:28;13.80;99.90
26703;DHT22;14316;51.074;3.704;2022-11-15T13:48:58;13.70;99.90
26703;DHT22;14316;51.074;3.704;2022-11-15T13:54:30;13.70;99.90
26703;DHT22;14316;51.074;3.704;2022-11-15T13:59:32;13.90;99.90
26703;DHT22;14316;51.074;3.704;2022-11-15T14:02:03;13.70;99.90
26703;DHT22;14316;51.074;3.704;2022-11-15T14:04:30;13.80;99.90
26703;DHT22;14316;51.074;3.704;2022-11-15T14:07:00;13.70;99.90
26703;DHT22;14316;51.074;3.704;2022-11-15T14:14:50;13.50;99.90
26703;DHT22;14316;51.074;3.704;2022-11-15T14:17:34;13.60;99.90
26703;DHT22;14316;51.074;3.704;2022-11-15T14:20:00;13.50;99.90
26703;DHT22;14316;51.074;3.704;2022-11-15T14:22:30;13.50;99.90
26703;DHT22;14316;51.074;3.704;2022-11-15T14:25:14;13.40;99.90
26703;DHT22;14316;51.074;3.704;2022-11-15T14:27:41;13.30;99.90
26703;DHT22;14316;51.074;3.704;2022-11-15T14:30:16;13.30;99.90
26703;DHT22;14316;51.074;3.704;2022-11-15T14:32:49;13.20;99.90
26703;DHT22;14316;51.074;3.704;2022-11-15T14:35:18;13.00;99.90
26703;DHT22;14316;51.074;3.704;2022-11-15T14:37:44;12.80;99.90
26703;DHT22;14316;51.074;3.704;2022-11-15T14:40:14;12.70;99.90
26703;DHT22;14316;51.074;3.704;2022-11-15T14:42:41;12.60;99.90
26703;DHT22;14316;51.074;3.704;2022-11-15T14:45:13;12.40;99.90
26703;DHT22;14316;51.074;3.704;2022-11-15T14:47:40;12.60;99.90
26703;DHT22;14316;51.074;3.704;2022-11-15T14:50:06;12.30;99.90
26703;DHT22;14316;51.074;3.704;2022-11-15T14:52:32;12.20;99.90
26703;DHT22;14316;51.074;3.704;2022-11-15T14:55:03;12.20;99.90
26703;DHT22;14316;51.074;3.704;2022-11-15T14:57:34;12.20;99.90
26703;DHT22;14316;51.074;3.704;2022-11-15T15:00:00;12.20;99.90
26703;DHT22;14316;51.074;3.704;2022-11-15T15:02:26;12.10;99.90
26703;DHT22;14316;51.074;3.704;2022-11-15T15:04:53;12.10;99.90
26703;DHT22;14316;51.074;3.704;2022-11-15T15:07:19;12.10;99.90
26703;DHT22;14316;51.074;3.704;2022-11-15T15:09:46;12.10;99.90
26703;DHT22;14316;51.074;3.704;2022-11-15T15:12:17;12.10;99.90
26703;DHT22;14316;51.074;3.704;2022-11-15T15:14:44;12.10;99.90
26703;DHT22;14316;51.074;3.704;2022-11-15T15:17:10;12.00;99.90
26703;DHT22;14316;51.074;3.704;2022-11-15T15:19:35;12.00;99.90
26703;DHT22;14316;51.074;3.704;2022-11-15T15:22:01;12.10;99.90
26703;DHT22;14316;51.074;3.704;2022-11-15T15:24:27;12.10;99.90
26703;DHT22;14316;51.074;3.704;2022-11-15T15:26:52;12.50;99.90
26703;DHT22;14316;51.074;3.704;2022-11-15T15:29:19;12.00;99.90
26703;DHT22;14316;51.074;3.704;2022-11-15T15:31:44;12.00;99.90
26703;DHT22;14316;51.074;3.704;2022-11-15T15:34:10;11.90;99.90
26703;DHT22;14316;51.074;3.704;2022-11-15T15:36:35;11.90;99.90
26703;DHT22;14316;51.074;3.704;2022-11-15T15:39:01;11.90;99.90
26703;DHT22;14316;51.074;3.704;2022-11-15T15:41:27;12.00;99.90
26703;DHT22;14316;51.074;3.704;2022-11-15T15:43:53;12.00;99.90
26703;DHT22;14316;51.074;3.704;2022-11-15T15:46:19;12.10;99.90
26703;DHT22;14316;51.074;3.704;2022-11-15T15:48:45;12.00;99.90
26703;DHT22;14316;51.074;3.704;2022-11-15T15:51:12;12.00;99.90
26703;DHT22;14316;51.074;3.704;2022-11-15T15:53:38;12.00;99.90
26703;DHT22;14316;51.074;3.704;2022-11-15T15:56:04;12.00;99.90
26703;DHT22;14316;51.074;3.704;2022-11-15T15:58:33;12.00;99.90
26703;DHT22;14316;51.074;3.704;2022-11-15T16:00:59;12.10;99.90
26703;DHT22;14316;51.074;3.704;2022-11-15T16:03:24;12.00;99.90
26703;DHT22;14316;51.074;3.704;2022-11-15T16:05:53;12.00;99.90
26703;DHT22;14316;51.074;3.704;2022-11-15T16:08:20;12.00;99.90
26703;DHT22;14316;51.074;3.704;2022-11-15T16:10:47;12.10;99.90
26703;DHT22;14316;51.074;3.704;2022-11-15T16:13:13;12.20;99.90
26703;DHT22;14316;51.074;3.704;2022-11-15T16:15:39;12.20;99.90
26703;DHT22;14316;51.074;3.704;2022-11-15T16:18:05;12.10;99.90
26703;DHT22;14316;51.074;3.704;2022-11-15T16:20:39;12.10;99.90
26703;DHT22;14316;51.074;3.704;2022-11-15T16:23:09;12.10;99.90
26703;DHT22;14316;51.074;3.704;2022-11-15T16:25:48;12.20;99.90
26703;DHT22;14316;51.074;3.704;2022-11-15T16:28:26;12.10;99.90
26703;DHT22;14316;51.074;3.704;2022-11-15T16:31:10;12.20;99.90
26703;DHT22;14316;51.074;3.704;2022-11-15T16:33:36;12.10;99.90
26703;DHT22;14316;51.074;3.704;2022-11-15T16:36:03;12.10;99.90
26703;DHT22;14316;51.074;3.704;2022-11-15T16:38:29;12.10;99.90
26703;DHT22;14316;51.074;3.704;2022-11-15T16:40:55;12.10;99.90
26703;DHT22;14316;51.074;3.704;2022-11-15T16:43:21;12.20;99.90
26703;DHT22;14316;51.074;3.704;2022-11-15T16:45:49;12.10;99.90
26703;DHT22;14316;51.074;3.704;2022-11-15T16:48:26;12.10;99.90
26703;DHT22;14316;51.074;3.704;2022-11-15T16:50:55;12.20;99.90
26703;DHT22;14316;51.074;3.704;2022-11-15T16:53:21;12.20;99.90
26703;DHT22;14316;51.074;3.704;2022-11-15T16:55:48;12.20;99.90
26703;DHT22;14316;51.074;3.704;2022-11-15T16:58:13;12.20;99.90
26703;DHT22;14316;51.074;3.704;2022-11-15T17:00:39;12.20;99.90
26703;DHT22;14316;51.074;3.704;2022-11-15T17:03:05;12.20;99.90
26703;DHT22;14316;51.074;3.704;2022-11-15T17:05:32;12.30;99.90
26703;DHT22;14316;51.074;3.704;2022-11-15T17:07:59;12.30;99.90
26703;DHT22;14316;51.074;3.704;2022-11-15T17:10:25;12.20;99.90
26703;DHT22;14316;51.074;3.704;2022-11-15T17:12:52;12.30;99.90
26703;DHT22;14316;51.074;3.704;2022-11-15T17:15:20;12.30;99.90
26703;DHT22;14316;51.074;3.704;2022-11-15T17:17:51;12.40;99.90
26703;DHT22;14316;51.074;3.704;2022-11-15T17:20:19;12.50;99.90
26703;DHT22;14316;51.074;3.704;2022-11-15T17:22:45;12.50;99.90
26703;DHT22;14316;51.074;3.704;2022-11-15T17:25:12;12.40;99.90
26703;DHT22;14316;51.074;3.704;2022-11-15T17:27:37;12.30;99.90